If you wish to contribute or participate in the discussions about articles you are invited to join SKYbrary as a registered user

 Actions

Rodez-Marcillac Airport

From SKYbrary Wiki

LFCR
Airport
ICAO: LFCR – IATA: RDZ
Summary
Name Rodez-Marcillac Airport
Region Europe
Territory France FR.gif
Location , Midi-Pyrenees
Serving Rodez
Elevation 582.168 m
1,910 ft
1,910 ft582.168 m
Type medium airport
Coordinates 44° 24' 28.33" N, 2° 28' 57.62" E
Runways
Designator Length Width Surface ROPS
13/31 2040 m6,692.913 ft
45 m147.638 ft
ASP /


METAR
Observation LFCR 232330Z AUTO 12009KT 080V150 9999 FEW021 12/10 Q1008 TEMPO 3000 BR BKN013
Station Rodez
Date/Time 23 October 2019 23:30:00
Wind direction 120°
Wind speed 09 kts
Lowest cloud amount few clouds
Temperature 12°C
Dew point 10°C
Humidity 87%
QNH 1008 hPa
Weather condition n/a